Time;durP1;ratioP1;P1;durP2;ratioP2;P2;SDS_P1;SDS_P2;PMS_P1;PMS_P2;Temp;Humidity;BMP_temperature;BMP_pressure;BME280_temperature;BME280_humidity;BME280_pressure;Samples;Min_cycle;Max_cycle;Signal;HPM_P1;HPM_P2
2021/11/15 00:01:16;;;;;;;;;;;9.30;66.60;;;;;;5043862;28;85931;-63
2021/11/15 00:03:42;;;;;;;;;;;9.30;66.60;;;;;;5042119;27;82125;-63
2021/11/15 00:06:08;;;;;;;;;;;9.20;66.50;;;;;;5046076;27;82887;-63
2021/11/15 00:08:33;;;;;;;;;;;9.20;66.60;;;;;;5046468;28;82111;-63
2021/11/15 00:10:59;;;;;;;;;;;9.20;66.60;;;;;;5045930;27;82986;-63
2021/11/15 00:13:24;;;;;;;;;;;9.20;66.50;;;;;;5043863;28;83100;-63
2021/11/15 00:15:50;;;;;;;;;;;9.10;66.50;;;;;;5044216;28;82129;-63
2021/11/15 00:18:15;;;;;;;;;;;9.10;66.50;;;;;;5043777;28;82173;-63
2021/11/15 00:20:42;;;;;;;;;;;9.10;66.50;;;;;;5043870;28;83382;-63
2021/11/15 00:23:07;;;;;;;;;;;9.10;66.60;;;;;;5045016;27;82086;-63
2021/11/15 00:25:33;;;;;;;;;;;9.10;66.60;;;;;;5041447;28;82171;-63
2021/11/15 00:27:59;;;;;;;;;;;9.10;66.50;;;;;;5041903;27;82096;-63
2021/11/15 00:30:25;;;;;;;;;;;9.10;66.50;;;;;;5042987;28;83570;-63
2021/11/15 00:32:51;;;;;;;;;;;9.00;66.60;;;;;;5041876;27;82485;-63
2021/11/15 00:35:16;;;;;;;;;;;9.00;66.60;;;;;;5042246;28;82089;-64
2021/11/15 00:37:42;;;;;;;;;;;9.00;66.50;;;;;;5040642;27;83077;-63
2021/11/15 00:40:10;;;;;;;;;;;9.00;66.60;;;;;;5041267;27;83673;-63
2021/11/15 00:42:37;;;;;;;;;;;9.00;66.50;;;;;;5046466;28;82567;-63
2021/11/15 00:45:04;;;;;;;;;;;9.00;66.40;;;;;;5042214;27;83718;-63
2021/11/15 00:47:29;;;;;;;;;;;9.00;66.40;;;;;;5042643;28;83218;-63
2021/11/15 00:49:55;;;;;;;;;;;8.90;66.40;;;;;;5044928;28;83825;-64
2021/11/15 00:52:20;;;;;;;;;;;8.90;66.50;;;;;;5044169;27;82850;-63
2021/11/15 00:54:46;;;;;;;;;;;8.90;66.50;;;;;;5045425;27;82606;-63
2021/11/15 00:57:11;;;;;;;;;;;8.90;66.40;;;;;;5043567;28;83286;-64
2021/11/15 00:59:37;;;;;;;;;;;8.90;66.50;;;;;;5046112;27;82569;-63
2021/11/15 01:02:03;;;;;;;;;;;8.80;66.50;;;;;;5044487;28;83100;-63
2021/11/15 01:04:28;;;;;;;;;;;8.80;66.50;;;;;;5048136;28;83511;-63
2021/11/15 01:06:54;;;;;;;;;;;8.80;66.40;;;;;;5044692;27;82083;-64
2021/11/15 01:09:20;;;;;;;;;;;8.80;66.50;;;;;;5043279;27;82114;-64
2021/11/15 01:11:47;;;;;;;;;;;8.80;66.50;;;;;;5041740;27;83648;-63
2021/11/15 01:14:12;;;;;;;;;;;8.80;66.40;;;;;;5043206;28;83616;-63
2021/11/15 01:16:38;;;;;;;;;;;8.80;66.30;;;;;;5045939;27;82963;-63
2021/11/15 01:19:04;;;;;;;;;;;8.80;66.40;;;;;;5044480;28;82705;-63
2021/11/15 01:21:29;;;;;;;;;;;8.80;66.40;;;;;;5045550;27;82164;-64
2021/11/15 01:23:56;;;;;;;;;;;8.70;66.50;;;;;;5044518;27;82140;-64
2021/11/15 01:26:21;;;;;;;;;;;8.70;66.40;;;;;;5044374;28;84479;-63
2021/11/15 01:28:48;;;;;;;;;;;8.60;66.60;;;;;;5041970;28;83487;-64
2021/11/15 01:31:14;;;;;;;;;;;8.70;66.60;;;;;;5041436;28;83181;-64
2021/11/15 01:33:39;;;;;;;;;;;8.60;66.40;;;;;;5040986;28;82104;-63
2021/11/15 01:36:05;;;;;;;;;;;8.70;66.40;;;;;;5040582;28;82521;-63
2021/11/15 01:38:30;;;;;;;;;;;8.60;66.40;;;;;;5042525;28;83171;-63
2021/11/15 01:40:56;;;;;;;;;;;8.60;66.50;;;;;;5041475;28;83358;-63
2021/11/15 01:43:22;;;;;;;;;;;8.60;66.40;;;;;;5045212;27;82072;-63
2021/11/15 01:45:47;;;;;;;;;;;8.60;66.50;;;;;;5044939;28;82763;-63
2021/11/15 01:48:13;;;;;;;;;;;8.60;66.50;;;;;;5046226;27;83833;-63
2021/11/15 01:50:39;;;;;;;;;;;8.50;66.40;;;;;;5041393;27;84456;-64
2021/11/15 01:53:05;;;;;;;;;;;8.60;66.40;;;;;;5044548;27;82186;-63
2021/11/15 01:55:31;;;;;;;;;;;8.60;66.20;;;;;;5042412;27;85068;-63
2021/11/15 01:57:58;;;;;;;;;;;8.50;66.40;;;;;;5041292;28;83138;-63
2021/11/15 02:00:27;;;;;;;;;;;8.50;66.30;;;;;;5041258;27;83334;-63
2021/11/15 02:02:53;;;;;;;;;;;8.50;66.40;;;;;;5039634;27;82541;-63
2021/11/15 02:05:19;;;;;;;;;;;8.50;66.50;;;;;;5041305;27;83143;-64
2021/11/15 02:07:44;;;;;;;;;;;8.50;66.30;;;;;;5042414;27;81374;-63
2021/11/15 02:10:11;;;;;;;;;;;8.50;66.30;;;;;;5043584;27;82141;-64
2021/11/15 02:12:36;;;;;;;;;;;8.40;66.40;;;;;;5040264;27;82563;-63
2021/11/15 02:15:03;;;;;;;;;;;8.40;66.30;;;;;;5039264;28;83040;-63
2021/11/15 02:17:30;;;;;;;;;;;8.40;66.40;;;;;;5043401;27;83156;-63
2021/11/15 02:19:58;;;;;;;;;;;8.40;66.30;;;;;;5041120;27;82065;-63
2021/11/15 02:22:24;;;;;;;;;;;8.40;66.40;;;;;;5043990;27;82874;-63
2021/11/15 02:24:49;;;;;;;;;;;8.40;66.40;;;;;;5044130;28;82995;-63
2021/11/15 02:27:15;;;;;;;;;;;8.40;66.30;;;;;;5043730;28;82072;-63
2021/11/15 02:29:40;;;;;;;;;;;8.40;66.20;;;;;;5042847;28;82098;-64
2021/11/15 02:32:07;;;;;;;;;;;8.40;66.20;;;;;;5045098;28;81863;-63
2021/11/15 02:34:33;;;;;;;;;;;8.30;66.30;;;;;;5039934;27;82129;-64
2021/11/15 02:36:59;;;;;;;;;;;8.30;66.40;;;;;;5040422;27;82593;-63
2021/11/15 02:39:25;;;;;;;;;;;8.30;66.40;;;;;;5039527;27;83129;-63
2021/11/15 02:41:50;;;;;;;;;;;8.30;66.40;;;;;;5038650;28;84423;-63
2021/11/15 02:44:16;;;;;;;;;;;8.30;66.40;;;;;;5039723;28;82595;-63
2021/11/15 02:46:42;;;;;;;;;;;8.20;66.20;;;;;;5039431;27;82168;-63
2021/11/15 02:49:07;;;;;;;;;;;8.20;66.30;;;;;;5041891;27;83735;-63
2021/11/15 02:51:33;;;;;;;;;;;8.20;66.50;;;;;;5046815;27;82708;-63
2021/11/15 02:53:59;;;;;;;;;;;8.10;66.60;;;;;;5043487;27;82131;-63
2021/11/15 02:56:24;;;;;;;;;;;8.10;67.10;;;;;;5042897;28;83374;-63
2021/11/15 02:58:50;;;;;;;;;;;8.10;66.40;;;;;;5041980;27;82213;-63
2021/11/15 03:01:17;;;;;;;;;;;8.20;66.30;;;;;;5042614;28;82533;-63
2021/11/15 03:03:43;;;;;;;;;;;8.10;66.30;;;;;;5041064;28;83667;-63
2021/11/15 03:06:08;;;;;;;;;;;8.10;66.40;;;;;;5041359;27;82081;-64
2021/11/15 03:08:34;;;;;;;;;;;8.10;66.40;;;;;;5040367;28;82108;-63
2021/11/15 03:11:00;;;;;;;;;;;8.00;66.50;;;;;;5040545;28;83605;-63
2021/11/15 03:13:28;;;;;;;;;;;8.00;66.80;;;;;;5042524;27;82115;-63
2021/11/15 03:15:54;;;;;;;;;;;8.00;66.70;;;;;;5046075;27;83526;-64
2021/11/15 03:18:21;;;;;;;;;;;8.00;66.60;;;;;;5046324;28;82107;-63
2021/11/15 03:20:49;;;;;;;;;;;8.00;66.60;;;;;;5043178;27;82927;-63
2021/11/15 03:23:16;;;;;;;;;;;8.00;66.60;;;;;;5046065;27;82730;-63
2021/11/15 03:25:42;;;;;;;;;;;8.00;66.60;;;;;;5042301;28;83852;-64
2021/11/15 03:28:09;;;;;;;;;;;8.00;66.50;;;;;;5043233;27;83123;-64
2021/11/15 03:30:34;;;;;;;;;;;8.00;66.50;;;;;;5046852;28;82128;-64
2021/11/15 03:33:00;;;;;;;;;;;7.90;66.60;;;;;;5046012;28;82171;-63
2021/11/15 03:35:26;;;;;;;;;;;7.90;67.00;;;;;;5049929;28;82822;-63
2021/11/15 03:37:52;;;;;;;;;;;7.90;66.70;;;;;;5046997;28;82119;-63
2021/11/15 03:40:20;;;;;;;;;;;7.90;66.80;;;;;;5046125;27;82617;-63
2021/11/15 03:42:47;;;;;;;;;;;7.90;66.60;;;;;;5037271;28;91136;-63
2021/11/15 03:45:13;;;;;;;;;;;7.80;66.70;;;;;;5043439;28;86568;-64
2021/11/15 03:47:39;;;;;;;;;;;7.90;66.60;;;;;;5041406;27;87142;-63
2021/11/15 03:50:05;;;;;;;;;;;7.80;66.60;;;;;;5040023;27;88182;-63
2021/11/15 03:52:31;;;;;;;;;;;7.80;66.70;;;;;;5038144;28;89421;-63
2021/11/15 03:54:57;;;;;;;;;;;7.80;66.70;;;;;;5043307;28;88595;-64
2021/11/15 03:57:22;;;;;;;;;;;7.80;67.00;;;;;;5044450;27;88818;-63
2021/11/15 03:59:48;;;;;;;;;;;7.80;66.80;;;;;;5043854;27;88854;-63
2021/11/15 04:02:14;;;;;;;;;;;7.70;66.90;;;;;;5042432;28;88133;-63
2021/11/15 04:04:52;;;;;;;;;;;7.70;67.10;;;;;;5042305;27;87158;-63
2021/11/15 04:07:28;;;;;;;;;;;7.60;67.20;;;;;;5039669;28;87525;-63
2021/11/15 04:09:59;;;;;;;;;;;7.70;66.90;;;;;;5038675;27;87655;-63
2021/11/15 04:12:24;;;;;;;;;;;7.70;66.80;;;;;;5038467;27;88251;-63
2021/11/15 04:14:50;;;;;;;;;;;7.70;66.90;;;;;;5040236;27;88604;-63
2021/11/15 04:17:16;;;;;;;;;;;7.70;67.00;;;;;;5039986;27;89659;-63
2021/11/15 04:19:42;;;;;;;;;;;7.70;66.90;;;;;;5041373;27;87087;-63
2021/11/15 04:22:07;;;;;;;;;;;7.70;66.80;;;;;;5038041;27;88791;-63
2021/11/15 04:24:33;;;;;;;;;;;7.60;67.00;;;;;;5040955;28;88725;-63
2021/11/15 04:26:58;;;;;;;;;;;7.60;67.10;;;;;;5041906;27;88940;-63
2021/11/15 04:29:24;;;;;;;;;;;7.60;66.90;;;;;;5041245;28;88044;-64
2021/11/15 04:31:49;;;;;;;;;;;7.60;66.90;;;;;;5039810;28;88484;-63
2021/11/15 04:34:15;;;;;;;;;;;7.60;67.40;;;;;;5038974;28;87429;-63
2021/11/15 04:36:40;;;;;;;;;;;7.60;66.90;;;;;;5038151;28;88228;-63
2021/11/15 04:39:06;;;;;;;;;;;7.60;67.00;;;;;;5038187;28;88625;-63
2021/11/15 04:41:32;;;;;;;;;;;7.50;67.20;;;;;;5044549;28;89938;-63
2021/11/15 04:43:57;;;;;;;;;;;7.50;67.10;;;;;;5042687;28;87159;-64
2021/11/15 04:46:23;;;;;;;;;;;7.50;67.10;;;;;;5042018;27;87250;-63
2021/11/15 04:48:48;;;;;;;;;;;7.50;67.00;;;;;;5040744;28;88071;-63
2021/11/15 04:51:14;;;;;;;;;;;7.50;67.20;;;;;;5040051;27;87131;-63
2021/11/15 04:53:39;;;;;;;;;;;7.50;67.00;;;;;;5040683;28;87137;-63
2021/11/15 04:56:07;;;;;;;;;;;7.50;66.90;;;;;;5039795;28;88282;-63
2021/11/15 04:58:33;;;;;;;;;;;7.40;67.10;;;;;;5039424;27;87955;-63
2021/11/15 05:00:58;;;;;;;;;;;7.40;67.10;;;;;;5040557;28;87599;-63
2021/11/15 05:03:24;;;;;;;;;;;7.40;67.10;;;;;;5041587;28;88762;-64
2021/11/15 05:05:49;;;;;;;;;;;7.40;67.10;;;;;;5040452;27;89588;-63
2021/11/15 05:08:15;;;;;;;;;;;7.40;67.10;;;;;;5041587;28;89698;-63
2021/11/15 05:10:41;;;;;;;;;;;7.40;66.80;;;;;;5042136;28;87108;-63
2021/11/15 05:13:07;;;;;;;;;;;7.40;66.90;;;;;;5042215;28;87246;-63
2021/11/15 05:15:32;;;;;;;;;;;7.40;67.00;;;;;;5040432;27;87688;-63
2021/11/15 05:17:58;;;;;;;;;;;7.30;67.00;;;;;;5040329;27;87111;-63
2021/11/15 05:20:24;;;;;;;;;;;7.30;67.00;;;;;;5040657;27;87163;-63
2021/11/15 05:22:49;;;;;;;;;;;7.30;67.00;;;;;;5043495;27;86599;-63
2021/11/15 05:25:16;;;;;;;;;;;7.20;67.10;;;;;;5055174;27;88243;-63
2021/11/15 05:27:42;;;;;;;;;;;7.30;66.90;;;;;;5037490;27;88664;-63
2021/11/15 05:30:08;;;;;;;;;;;7.20;67.00;;;;;;5037681;28;88100;-63
2021/11/15 05:32:34;;;;;;;;;;;7.20;66.90;;;;;;5036894;27;87860;-63
2021/11/15 05:35:00;;;;;;;;;;;7.20;67.00;;;;;;5038783;27;88762;-63
2021/11/15 05:37:25;;;;;;;;;;;7.20;66.80;;;;;;5038259;27;88317;-65
2021/11/15 05:39:51;;;;;;;;;;;7.30;66.80;;;;;;5037440;27;88883;-65
2021/11/15 05:42:17;;;;;;;;;;;7.20;66.70;;;;;;5039246;28;91557;-65
2021/11/15 05:44:42;;;;;;;;;;;7.20;66.90;;;;;;5045107;28;87156;-65
2021/11/15 05:47:08;;;;;;;;;;;7.20;67.10;;;;;;5041512;28;87935;-65
2021/11/15 05:49:33;;;;;;;;;;;7.20;66.90;;;;;;5041377;28;87140;-65
2021/11/15 05:51:59;;;;;;;;;;;7.20;67.10;;;;;;5040372;28;87844;-65
2021/11/15 05:54:25;;;;;;;;;;;7.10;67.20;;;;;;5038801;27;88898;-63
2021/11/15 05:56:50;;;;;;;;;;;7.10;67.10;;;;;;5040232;27;87116;-63
2021/11/15 05:59:16;;;;;;;;;;;7.10;66.90;;;;;;5039512;27;87146;-63
2021/11/15 06:01:43;;;;;;;;;;;7.20;66.90;;;;;;5039449;28;88182;-63
2021/11/15 06:04:09;;;;;;;;;;;7.10;67.00;;;;;;5037315;28;87113;-63
2021/11/15 06:06:35;;;;;;;;;;;7.20;66.90;;;;;;5039483;27;87196;-63
2021/11/15 06:09:00;;;;;;;;;;;7.10;66.90;;;;;;5036951;28;88617;-63
2021/11/15 06:11:26;;;;;;;;;;;7.10;67.10;;;;;;5037300;28;87514;-63
2021/11/15 06:13:51;;;;;;;;;;;7.10;67.10;;;;;;5036957;28;88502;-63
2021/11/15 06:16:17;;;;;;;;;;;7.10;66.90;;;;;;5039702;28;88700;-63
2021/11/15 06:18:44;;;;;;;;;;;7.10;67.00;;;;;;5040447;27;89684;-63
2021/11/15 06:21:09;;;;;;;;;;;7.10;66.80;;;;;;5039667;27;89130;-63
2021/11/15 06:23:35;;;;;;;;;;;7.10;66.90;;;;;;5038886;28;87203;-63
2021/11/15 06:26:01;;;;;;;;;;;7.00;67.00;;;;;;5039279;27;87496;-63
2021/11/15 06:28:26;;;;;;;;;;;7.00;67.10;;;;;;5042503;27;88497;-63
2021/11/15 06:30:53;;;;;;;;;;;7.00;66.90;;;;;;5039252;27;87398;-63
2021/11/15 06:33:18;;;;;;;;;;;7.00;67.00;;;;;;5037968;27;87596;-63
2021/11/15 06:35:44;;;;;;;;;;;7.00;67.00;;;;;;5039045;28;86378;-63
2021/11/15 06:38:10;;;;;;;;;;;7.00;66.90;;;;;;5039197;28;87200;-63
2021/11/15 06:40:35;;;;;;;;;;;7.00;66.90;;;;;;5038084;27;88542;-63
2021/11/15 06:43:01;;;;;;;;;;;7.00;66.80;;;;;;5036889;28;88057;-63
2021/11/15 06:45:26;;;;;;;;;;;7.00;66.80;;;;;;5036636;28;87501;-63
2021/11/15 06:47:52;;;;;;;;;;;7.00;66.80;;;;;;5035404;27;88195;-63
2021/11/15 06:50:19;;;;;;;;;;;7.00;66.80;;;;;;5042377;27;88890;-63
2021/11/15 06:52:44;;;;;;;;;;;7.00;66.90;;;;;;5038890;27;88004;-63
2021/11/15 06:55:12;;;;;;;;;;;6.90;67.00;;;;;;5036831;28;87122;-63
2021/11/15 06:57:40;;;;;;;;;;;7.00;67.00;;;;;;5038882;28;88608;-63
2021/11/15 07:00:07;;;;;;;;;;;7.00;66.90;;;;;;5038811;28;87304;-63
2021/11/15 07:02:33;;;;;;;;;;;7.00;66.90;;;;;;5039195;27;87242;-63
2021/11/15 07:04:58;;;;;;;;;;;6.90;66.90;;;;;;5037856;28;87471;-63
2021/11/15 07:07:24;;;;;;;;;;;6.90;67.10;;;;;;5037655;28;89091;-63
2021/11/15 07:09:49;;;;;;;;;;;6.90;66.80;;;;;;5041018;28;87195;-63
2021/11/15 07:12:15;;;;;;;;;;;6.90;66.90;;;;;;5037835;27;87604;-64
2021/11/15 07:14:41;;;;;;;;;;;6.90;66.90;;;;;;5040445;27;87317;-63
2021/11/15 07:17:06;;;;;;;;;;;6.90;66.90;;;;;;5040376;28;87144;-63
2021/11/15 07:19:32;;;;;;;;;;;6.90;66.80;;;;;;5039093;27;88419;-63
2021/11/15 07:21:58;;;;;;;;;;;6.90;67.10;;;;;;5035671;28;87116;-63
2021/11/15 07:24:23;;;;;;;;;;;6.80;67.00;;;;;;5037718;28;86906;-63
2021/11/15 07:26:49;;;;;;;;;;;6.80;67.00;;;;;;5036732;28;88816;-63
2021/11/15 07:29:15;;;;;;;;;;;6.80;67.00;;;;;;5036476;27;87093;-63
2021/11/15 07:31:42;;;;;;;;;;;6.80;67.00;;;;;;5040935;27;88080;-63
2021/11/15 07:34:08;;;;;;;;;;;6.80;67.20;;;;;;5037849;27;87291;-63
2021/11/15 07:36:35;;;;;;;;;;;6.80;67.20;;;;;;5038380;27;87188;-63
2021/11/15 07:39:00;;;;;;;;;;;6.80;67.20;;;;;;5037286;27;87178;-63
2021/11/15 07:41:26;;;;;;;;;;;6.80;67.00;;;;;;5036360;27;87211;-63
2021/11/15 07:43:52;;;;;;;;;;;6.80;67.20;;;;;;5037494;28;87239;-62
2021/11/15 07:46:17;;;;;;;;;;;6.80;67.00;;;;;;5039580;27;88646;-62
2021/11/15 07:48:43;;;;;;;;;;;6.80;67.20;;;;;;5039729;28;86397;-63
2021/11/15 07:51:09;;;;;;;;;;;6.80;67.30;;;;;;5038940;28;87969;-63
2021/11/15 07:53:37;;;;;;;;;;;6.80;67.20;;;;;;5039206;27;88191;-63
2021/11/15 07:56:06;;;;;;;;;;;6.80;67.20;;;;;;5035780;27;88959;-63
2021/11/15 07:58:32;;;;;;;;;;;6.80;67.10;;;;;;5036190;27;88662;-63
2021/11/15 08:00:58;;;;;;;;;;;6.80;67.20;;;;;;5037501;27;87155;-63
2021/11/15 08:03:23;;;;;;;;;;;6.70;67.10;;;;;;5041513;27;87974;-63
2021/11/15 08:05:49;;;;;;;;;;;6.80;67.20;;;;;;5039879;27;87128;-63
2021/11/15 08:08:14;;;;;;;;;;;6.80;67.30;;;;;;5041899;28;88521;-63
2021/11/15 08:10:40;;;;;;;;;;;6.80;67.30;;;;;;5039271;28;87482;-63
2021/11/15 08:13:06;;;;;;;;;;;6.70;67.10;;;;;;5040948;28;87565;-63
2021/11/15 08:15:31;;;;;;;;;;;6.80;67.10;;;;;;5044118;28;88499;-63
2021/11/15 08:17:59;;;;;;;;;;;6.70;67.30;;;;;;5039819;27;88089;-63
2021/11/15 08:20:24;;;;;;;;;;;6.80;67.20;;;;;;5040412;27;88096;-63
2021/11/15 08:22:52;;;;;;;;;;;6.70;67.30;;;;;;5040661;28;87942;-63
2021/11/15 08:25:26;;;;;;;;;;;6.70;67.30;;;;;;5040336;27;88480;-63
2021/11/15 08:27:56;;;;;;;;;;;6.70;67.50;;;;;;5042257;27;87202;-63
2021/11/15 08:30:22;;;;;;;;;;;6.60;67.50;;;;;;5040133;27;88730;-63
2021/11/15 08:32:48;;;;;;;;;;;6.70;67.60;;;;;;5041976;28;87654;-63
2021/11/15 08:35:14;;;;;;;;;;;6.70;67.40;;;;;;5041218;28;87205;-63
2021/11/15 08:37:50;;;;;;;;;;;6.70;67.70;;;;;;5045053;27;87863;-63
2021/11/15 08:40:16;;;;;;;;;;;6.70;67.40;;;;;;5041031;28;87256;-63
2021/11/15 08:42:41;;;;;;;;;;;6.70;67.60;;;;;;5039587;28;87138;-63
2021/11/15 08:45:07;;;;;;;;;;;6.70;67.70;;;;;;5040487;28;88729;-63
2021/11/15 08:47:33;;;;;;;;;;;6.70;67.60;;;;;;5039288;27;87166;-63
2021/11/15 08:49:58;;;;;;;;;;;6.60;67.60;;;;;;5041576;27;88713;-63
2021/11/15 08:52:24;;;;;;;;;;;6.60;68.00;;;;;;5039026;28;88848;-63
2021/11/15 08:54:51;;;;;;;;;;;6.60;68.00;;;;;;5040991;27;87107;-63
2021/11/15 08:57:17;;;;;;;;;;;6.60;68.10;;;;;;5044179;28;87156;-63
2021/11/15 08:59:43;;;;;;;;;;;6.50;68.30;;;;;;5039592;27;87125;-63
2021/11/15 09:02:09;;;;;;;;;;;6.50;68.40;;;;;;5040842;27;87945;-63
2021/11/15 09:04:36;;;;;;;;;;;6.50;68.40;;;;;;5040089;27;87269;-63
2021/11/15 09:07:02;;;;;;;;;;;6.60;68.20;;;;;;5040313;28;87978;-63
2021/11/15 09:09:28;;;;;;;;;;;6.60;68.10;;;;;;5038634;28;88118;-63
2021/11/15 09:11:55;;;;;;;;;;;6.50;68.20;;;;;;5040998;27;88178;-63
2021/11/15 09:14:21;;;;;;;;;;;6.50;68.40;;;;;;5040241;27;87837;-63
2021/11/15 09:16:47;;;;;;;;;;;6.50;68.60;;;;;;5038550;28;87647;-63
2021/11/15 09:19:13;;;;;;;;;;;6.50;68.40;;;;;;5044016;27;88069;-63
2021/11/15 09:21:39;;;;;;;;;;;6.50;68.60;;;;;;5039715;28;88061;-64
2021/11/15 09:24:05;;;;;;;;;;;6.50;68.80;;;;;;5039104;27;88132;-63
2021/11/15 09:26:30;;;;;;;;;;;6.50;69.00;;;;;;5039435;28;87002;-63
2021/11/15 09:28:58;;;;;;;;;;;6.50;68.50;;;;;;5038631;27;87208;-63
2021/11/15 09:31:24;;;;;;;;;;;6.40;68.80;;;;;;5037574;27;87143;-63
2021/11/15 09:33:50;;;;;;;;;;;6.50;68.60;;;;;;5039440;27;89304;-63
2021/11/15 09:36:16;;;;;;;;;;;6.50;68.30;;;;;;5039463;27;88323;-63
2021/11/15 09:38:44;;;;;;;;;;;6.50;68.70;;;;;;5038629;28;88510;-63
2021/11/15 09:41:10;;;;;;;;;;;6.50;68.70;;;;;;5041948;28;87193;-63
2021/11/15 09:43:37;;;;;;;;;;;6.40;68.80;;;;;;5040275;28;88206;-63
2021/11/15 09:46:11;;;;;;;;;;;6.40;69.10;;;;;;5039617;27;87170;-63
2021/11/15 09:48:38;;;;;;;;;;;6.40;69.30;;;;;;5040037;27;89442;-63
2021/11/15 09:51:05;;;;;;;;;;;6.50;68.80;;;;;;5041713;27;86389;-63
2021/11/15 09:53:30;;;;;;;;;;;6.40;69.00;;;;;;5040264;28;87169;-63
2021/11/15 09:55:56;;;;;;;;;;;6.40;69.10;;;;;;5039450;27;87292;-63
2021/11/15 09:58:22;;;;;;;;;;;6.40;69.00;;;;;;5037385;27;89081;-63
2021/11/15 10:00:48;;;;;;;;;;;6.40;69.20;;;;;;5037083;28;87178;-63
2021/11/15 10:03:13;;;;;;;;;;;6.40;69.60;;;;;;5039969;28;87326;-63
2021/11/15 10:05:39;;;;;;;;;;;6.40;69.20;;;;;;5037693;28;87118;-63
2021/11/15 10:08:09;;;;;;;;;;;6.40;69.30;;;;;;5039018;28;87131;-63
2021/11/15 10:10:46;;;;;;;;;;;6.40;69.80;;;;;;5041008;27;88219;-63
2021/11/15 10:13:30;;;;;;;;;;;6.40;69.40;;;;;;5039235;27;87134;-63
2021/11/15 10:16:05;;;;;;;;;;;6.40;69.50;;;;;;5037696;27;87361;-63
2021/11/15 10:18:42;;;;;;;;;;;6.40;69.90;;;;;;5037907;28;89257;-63
2021/11/15 10:21:11;;;;;;;;;;;6.40;69.50;;;;;;5036547;27;87106;-63
2021/11/15 10:23:39;;;;;;;;;;;6.40;69.60;;;;;;5039394;28;88095;-63
2021/11/15 10:26:38;;;;;;;;;;;6.40;69.70;;;;;;5039138;27;87205;-63
2021/11/15 10:29:24;;;;;;;;;;;6.40;69.60;;;;;;5004654;27;88083;-63
2021/11/15 10:31:51;;;;;;;;;;;6.40;69.70;;;;;;5037448;27;87352;-63
2021/11/15 10:34:24;;;;;;;;;;;6.40;69.60;;;;;;5036558;27;87183;-63
2021/11/15 10:37:12;;;;;;;;;;;6.40;69.80;;;;;;5040970;27;89120;-63
2021/11/15 10:39:38;;;;;;;;;;;6.40;70.10;;;;;;5038528;27;89752;-63
2021/11/15 10:42:06;;;;;;;;;;;6.40;69.90;;;;;;5039529;27;86396;-63
2021/11/15 10:44:32;;;;;;;;;;;6.30;69.90;;;;;;5036847;27;87182;-63
2021/11/15 10:46:59;;;;;;;;;;;6.40;69.90;;;;;;5037012;28;87686;-62
2021/11/15 10:49:25;;;;;;;;;;;6.40;70.30;;;;;;5038951;28;88093;-63
2021/11/15 10:51:58;;;;;;;;;;;6.40;69.90;;;;;;5035114;28;88534;-63
2021/11/15 10:57:34;;;;;;;;;;;6.40;70.10;;;;;;5038191;28;87137;-63
2021/11/15 11:02:35;;;;;;;;;;;6.40;69.90;;;;;;5038979;28;87327;-63
2021/11/15 11:05:08;;;;;;;;;;;6.30;70.00;;;;;;5036230;27;87468;-63
2021/11/15 11:07:35;;;;;;;;;;;6.40;70.10;;;;;;5038677;27;87936;-62
2021/11/15 11:10:05;;;;;;;;;;;6.40;70.10;;;;;;5043649;27;87160;-63
2021/11/15 11:12:36;;;;;;;;;;;6.40;70.30;;;;;;5035476;27;89107;-63
2021/11/15 11:15:22;;;;;;;;;;;6.40;70.10;;;;;;5036425;28;88167;-63
2021/11/15 11:17:56;;;;;;;;;;;6.40;70.10;;;;;;5036973;27;88598;-62
2021/11/15 11:20:48;;;;;;;;;;;6.40;70.20;;;;;;5040140;27;88472;-62
2021/11/15 11:25:48;;;;;;;;;;;6.40;70.10;;;;;;5036566;28;87549;-63
2021/11/15 11:28:33;;;;;;;;;;;6.40;69.90;;;;;;5036281;27;87887;-63
2021/11/15 11:31:00;;;;;;;;;;;6.40;70.10;;;;;;5037964;27;87252;-63
2021/11/15 11:33:28;;;;;;;;;;;6.40;69.90;;;;;;5040437;27;86941;-63
2021/11/15 11:35:53;;;;;;;;;;;6.40;70.10;;;;;;5037071;27;87134;-63
2021/11/15 11:38:19;;;;;;;;;;;6.40;70.20;;;;;;5040529;27;87226;-63
2021/11/15 11:40:46;;;;;;;;;;;6.50;70.10;;;;;;5039390;27;88545;-63
2021/11/15 11:43:13;;;;;;;;;;;6.50;70.40;;;;;;5039061;27;87316;-63
2021/11/15 11:45:39;;;;;;;;;;;6.60;70.00;;;;;;5040046;28;87919;-63
2021/11/15 11:48:05;;;;;;;;;;;6.50;69.90;;;;;;5038782;28;87141;-63
2021/11/15 11:50:32;;;;;;;;;;;6.60;70.30;;;;;;5039975;27;87108;-63
2021/11/15 11:53:02;;;;;;;;;;;6.50;70.00;;;;;;5039292;28;87116;-63
2021/11/15 11:55:31;;;;;;;;;;;6.50;70.90;;;;;;5043053;27;88123;-63
2021/11/15 11:57:57;;;;;;;;;;;6.60;70.10;;;;;;5042964;27;87494;-62
2021/11/15 12:00:23;;;;;;;;;;;6.60;70.50;;;;;;5042871;28;89028;-63
2021/11/15 12:02:49;;;;;;;;;;;6.50;70.10;;;;;;5040872;27;87230;-63
2021/11/15 12:05:18;;;;;;;;;;;6.50;70.10;;;;;;5038659;28;88885;-62
2021/11/15 12:07:55;;;;;;;;;;;6.50;70.80;;;;;;5040558;28;88034;-62
2021/11/15 12:10:40;;;;;;;;;;;6.50;70.50;;;;;;5039848;27;87133;-62
2021/11/15 12:13:06;;;;;;;;;;;6.50;70.40;;;;;;5041636;27;89176;-62
2021/11/15 12:15:34;;;;;;;;;;;6.50;70.50;;;;;;5041813;27;87506;-62
2021/11/15 12:18:09;;;;;;;;;;;6.50;70.50;;;;;;5042530;27;87166;-62
2021/11/15 12:20:54;;;;;;;;;;;6.50;70.50;;;;;;5039677;28;88418;-63
2021/11/15 12:23:20;;;;;;;;;;;6.50;70.50;;;;;;5042759;28;86466;-63
2021/11/15 12:26:00;;;;;;;;;;;6.50;70.80;;;;;;5042632;27;88119;-63
2021/11/15 12:28:29;;;;;;;;;;;6.50;70.60;;;;;;5038614;27;88133;-63
2021/11/15 12:30:57;;;;;;;;;;;6.50;70.80;;;;;;5041040;27;88047;-62
2021/11/15 12:33:24;;;;;;;;;;;6.50;70.90;;;;;;5039922;27;88464;-63
2021/11/15 12:35:54;;;;;;;;;;;6.50;70.70;;;;;;5038942;27;87749;-63
2021/11/15 12:38:38;;;;;;;;;;;6.60;70.70;;;;;;5041376;27;87121;-62
2021/11/15 12:41:24;;;;;;;;;;;6.50;71.00;;;;;;5044841;28;88810;-63
2021/11/15 12:43:59;;;;;;;;;;;6.60;71.10;;;;;;5041756;28;88530;-65
2021/11/15 12:46:48;;;;;;;;;;;6.60;71.20;;;;;;5039048;27;88844;-64
2021/11/15 12:49:14;;;;;;;;;;;6.60;70.90;;;;;;5040752;27;87807;-65
2021/11/15 12:51:39;;;;;;;;;;;6.60;71.40;;;;;;5042030;28;87109;-63
2021/11/15 12:54:05;;;;;;;;;;;6.60;71.30;;;;;;5041046;28;87570;-63
2021/11/15 12:56:37;;;;;;;;;;;6.60;70.70;;;;;;5036836;28;90100;-63
2021/11/15 12:59:03;;;;;;;;;;;6.70;70.60;;;;;;5041011;27;88927;-63
2021/11/15 13:01:28;;;;;;;;;;;6.60;70.80;;;;;;5037793;28;87120;-63
2021/11/15 13:03:54;;;;;;;;;;;6.70;70.80;;;;;;5041685;28;87443;-63
2021/11/15 13:06:25;;;;;;;;;;;6.70;70.90;;;;;;5039011;27;87140;-62
2021/11/15 13:08:51;;;;;;;;;;;6.70;71.00;;;;;;5039068;28;88076;-63
2021/11/15 13:11:17;;;;;;;;;;;6.70;71.10;;;;;;5038265;27;87135;-63
2021/11/15 13:13:43;;;;;;;;;;;6.70;71.40;;;;;;5038680;28;87513;-63
2021/11/15 13:16:08;;;;;;;;;;;6.80;71.00;;;;;;5038406;27;89311;-63
2021/11/15 13:18:34;;;;;;;;;;;6.70;71.10;;;;;;5039827;27;87253;-63
2021/11/15 13:21:02;;;;;;;;;;;6.80;71.30;;;;;;5038666;27;88178;-63
2021/11/15 13:23:30;;;;;;;;;;;6.80;70.90;;;;;;5040175;27;87253;-63
2021/11/15 13:25:56;;;;;;;;;;;6.80;71.70;;;;;;5041356;28;88724;-63
2021/11/15 13:28:22;;;;;;;;;;;6.80;71.30;;;;;;5041179;27;89310;-63
2021/11/15 13:30:47;;;;;;;;;;;6.80;71.30;;;;;;5038875;27;88603;-63
2021/11/15 13:33:13;;;;;;;;;;;6.80;71.20;;;;;;5037635;27;87575;-63
2021/11/15 13:35:39;;;;;;;;;;;6.90;71.40;;;;;;5038056;28;88192;-63
2021/11/15 13:38:05;;;;;;;;;;;6.90;71.20;;;;;;5040192;27;86477;-63
2021/11/15 13:40:32;;;;;;;;;;;6.90;72.10;;;;;;5040520;28;87277;-63
2021/11/15 13:42:58;;;;;;;;;;;6.90;72.00;;;;;;5038599;28;88769;-63
2021/11/15 13:45:23;;;;;;;;;;;6.90;71.00;;;;;;5042380;28;88100;-62
2021/11/15 13:47:50;;;;;;;;;;;7.00;71.20;;;;;;5040900;28;88844;-63
2021/11/15 13:50:15;;;;;;;;;;;7.00;71.00;;;;;;5041502;27;87117;-64
2021/11/15 13:52:41;;;;;;;;;;;7.00;71.50;;;;;;5039637;28;88172;-64
2021/11/15 13:55:07;;;;;;;;;;;7.00;71.30;;;;;;5036506;27;89496;-64
2021/11/15 13:57:32;;;;;;;;;;;7.00;71.30;;;;;;5037466;27;87153;-64
2021/11/15 13:59:58;;;;;;;;;;;7.00;71.50;;;;;;5036209;27;88025;-64
2021/11/15 14:02:24;;;;;;;;;;;7.00;71.80;;;;;;5038462;28;87500;-64
2021/11/15 14:04:49;;;;;;;;;;;7.10;71.50;;;;;;5039417;28;87218;-64
2021/11/15 14:07:15;;;;;;;;;;;7.00;71.60;;;;;;5042789;28;87616;-64
2021/11/15 14:09:41;;;;;;;;;;;7.00;71.60;;;;;;5040172;28;88080;-64
2021/11/15 14:12:07;;;;;;;;;;;7.10;71.10;;;;;;5040570;28;88363;-64
2021/11/15 14:14:32;;;;;;;;;;;7.10;71.20;;;;;;5040575;28;88000;-64
2021/11/15 14:16:58;;;;;;;;;;;7.10;71.40;;;;;;5038134;27;88677;-64
2021/11/15 14:19:23;;;;;;;;;;;7.10;71.20;;;;;;5037216;28;87549;-64
2021/11/15 14:21:49;;;;;;;;;;;7.10;71.80;;;;;;5037959;27;88155;-64
2021/11/15 14:24:15;;;;;;;;;;;7.10;71.60;;;;;;5039486;27;87187;-64
2021/11/15 14:26:40;;;;;;;;;;;7.10;71.50;;;;;;5040951;27;88755;-64
2021/11/15 14:29:06;;;;;;;;;;;7.10;71.80;;;;;;5042739;28;88718;-64
2021/11/15 14:31:31;;;;;;;;;;;7.10;71.40;;;;;;5037333;27;88783;-64
2021/11/15 14:33:57;;;;;;;;;;;7.10;71.60;;;;;;5036122;28;89132;-64
2021/11/15 14:36:23;;;;;;;;;;;7.10;72.20;;;;;;5037662;28;87142;-64
2021/11/15 14:38:48;;;;;;;;;;;7.20;72.00;;;;;;5037914;27;88027;-64